Fresno Yosemite International Airport
KFAT : rendu visible

Aérodrome :











RETROUVEZ-NOUS SUR...

 
LOGIN :

S'inscrire | Disclaimer

   EN    FR    IT 

 









Légende :    VFR   VFR Marginal   IFR   IFR Intensif   IFR Très Intensif
Visi : 
Plafond : 
>= 8 km
>= 3000ft
5 à 8 km
1000 à 3000 ft
1500m à 5 km
500 à 1000 ft
800 à 1500m
200 à 500 ft
< 800m
< 200 ft
Symboles :   Orages  Brouillard  Fortes neiges  Fortes précipitations  Vent > 20 kt






- Altitude de l'aérodrome : 336 ft
- Code IATA : FAT


KFAT - Fresno Yosemite International

DERNIER METAR :
  • 042353Z 30005KT 10SM BKN110 19/02 A2983 RMK AO2 SLP100 T01890022 10200 20150 58017

METARs EXPIRÉS :
  • 042253Z VRB03KT 10SM BKN110 19/02 A2985 RMK AO2 SLP105 T01890022
  • 042153Z 30007KT 10SM BKN110 BKN150 19/02 A2987 RMK AO2 SLP113 CU OMTNS NE-SE T01890022

TAF KFAT
Valide du 05 à 00h jusqu'au 06 à 00h UTC


042320Z 0500/0524 31008KT P6SM BKN100 OVC150
FM050300 31008KT P6SM VCSH SCT050 OVC070
TEMPO 0505/0508 -RA BKN030 OVC050
FM050800 28008KT P6SM -RA BKN030 OVC050
FM051200 15016G23KT P6SM -RA BKN030 OVC050
FM051800 17020G26KT 4SM -RA BR OVC050
FM052200 15006KT 5SM -RA BR OVC050



MET'MAP, la Météo Aéronautique d'un coup d'oeil ! - Copyright ORBIFLY Décembre 2007 - Disclaimer

ORBIFLY MET'MAP TEAM :

Programmation & Développement : Alexandra Zaïnal
Sur une idée originale de : Baudouin d'Aumeries
Assistance à la programmation : Marc-Olivier Méhu
Soutien technique & logistique : Manuel Goepfert

Contact : metmap@orbifly.com




SOURCES & CREDITS :

   NOAA       Earth
Advisory